Time;durP1;ratioP1;P1;durP2;ratioP2;P2;SDS_P1;SDS_P2;PMS_P1;PMS_P2;Temp;Humidity;BMP_temperature;BMP_pressure;BME280_temperature;BME280_humidity;BME280_pressure;Samples;Min_cycle;Max_cycle;Signal;HPM_P1;HPM_P2
2021/06/26 00:00:53;;;;;;;18.73;14.30;;;18.10;97.60;;;;;;5089796;28;20024;-83
2021/06/26 00:03:21;;;;;;;17.23;13.30;;;18.00;97.60;;;;;;5091647;28;20082;-84
2021/06/26 00:05:47;;;;;;;18.35;13.90;;;18.10;97.60;;;;;;5090131;28;20039;-84
2021/06/26 00:08:12;;;;;;;18.80;13.80;;;18.00;97.70;;;;;;5091604;28;20024;-83
2021/06/26 00:10:39;;;;;;;19.55;12.93;;;18.00;98.00;;;;;;5093459;28;20096;-83
2021/06/26 00:13:04;;;;;;;20.45;14.32;;;18.00;98.00;;;;;;5094035;28;20028;-83
2021/06/26 00:15:30;;;;;;;18.88;13.75;;;18.00;97.70;;;;;;5095347;28;20035;-84
2021/06/26 00:17:56;;;;;;;20.55;14.55;;;18.00;97.80;;;;;;5095235;28;20532;-84
2021/06/26 00:20:21;;;;;;;21.42;14.20;;;17.90;97.80;;;;;;5094596;28;20049;-84
2021/06/26 00:22:47;;;;;;;20.50;13.50;;;17.90;97.90;;;;;;5093771;28;20024;-84
2021/06/26 00:25:13;;;;;;;21.23;15.23;;;17.90;98.00;;;;;;5093902;28;20500;-83
2021/06/26 00:27:38;;;;;;;18.38;14.25;;;17.90;98.00;;;;;;5095126;28;20048;-83
2021/06/26 00:30:05;;;;;;;18.58;13.85;;;17.90;98.00;;;;;;5094304;28;20030;-84
2021/06/26 00:32:30;;;;;;;20.27;13.18;;;17.90;98.10;;;;;;5094789;28;20598;-84
2021/06/26 00:34:56;;;;;;;19.48;14.00;;;17.80;98.40;;;;;;5095024;28;20031;-84
2021/06/26 00:37:21;;;;;;;19.15;15.13;;;17.80;98.20;;;;;;5094775;28;20027;-84
2021/06/26 00:39:47;;;;;;;19.23;13.48;;;17.80;98.20;;;;;;5092947;28;20502;-84
2021/06/26 00:42:13;;;;;;;18.05;13.50;;;17.80;98.20;;;;;;5094444;28;20054;-83
2021/06/26 00:44:38;;;;;;;20.15;13.65;;;17.80;98.20;;;;;;5094763;28;20020;-84
2021/06/26 00:47:11;;;;;;;21.42;13.93;;;17.80;98.20;;;;;;5093403;28;20067;-83
2021/06/26 00:49:40;;;;;;;17.33;13.38;;;17.70;98.30;;;;;;5092703;28;20031;-83
2021/06/26 00:52:06;;;;;;;;;;;17.70;98.30;;;;;;5093529;28;20024;-84
2021/06/26 00:54:33;;;;;;;17.52;13.52;;;17.70;98.40;;;;;;5094521;28;20574;-84
2021/06/26 00:56:59;;;;;;;18.85;13.30;;;17.60;98.40;;;;;;5093132;28;20110;-84
2021/06/26 00:59:26;;;;;;;23.15;13.95;;;17.60;98.60;;;;;;5092576;28;20028;-83
2021/06/26 01:01:52;;;;;;;20.17;14.40;;;17.60;98.50;;;;;;5094330;28;20016;-84
2021/06/26 01:04:17;;;;;;;19.58;13.93;;;17.60;98.40;;;;;;5092949;28;20128;-83
2021/06/26 01:06:43;;;;;;;19.17;14.00;;;17.60;98.50;;;;;;5094171;28;20036;-84
2021/06/26 01:09:08;;;;;;;19.90;14.30;;;17.60;98.50;;;;;;5093642;28;20088;-84
2021/06/26 01:11:34;;;;;;;19.67;14.40;;;17.60;98.50;;;;;;5094094;28;20528;-84
2021/06/26 01:14:01;;;;;;;18.25;14.02;;;17.60;98.50;;;;;;5094251;28;20400;-83
2021/06/26 01:16:27;;;;;;;22.73;14.10;;;17.60;98.80;;;;;;5092701;28;20113;-84
2021/06/26 01:18:53;;;;;;;17.95;13.40;;;17.60;98.80;;;;;;5092341;28;20059;-84
2021/06/26 01:21:19;;;;;;;18.13;13.13;;;17.50;98.50;;;;;;5092648;28;20024;-84
2021/06/26 01:23:50;;;;;;;19.73;14.38;;;17.60;98.50;;;;;;5092678;28;20111;-84
2021/06/26 01:26:17;;;;;;;19.55;14.13;;;17.50;98.50;;;;;;5092629;28;20024;-83
2021/06/26 01:28:43;;;;;;;20.50;14.50;;;17.50;98.50;;;;;;5092626;28;20051;-83
2021/06/26 01:31:09;;;;;;;18.50;14.25;;;17.50;98.50;;;;;;5091833;28;20024;-84
2021/06/26 01:33:35;;;;;;;19.95;13.30;;;17.60;98.50;;;;;;5094116;28;20085;-81
2021/06/26 01:36:01;;;;;;;20.00;14.20;;;17.50;98.50;;;;;;5094153;28;20093;-82
2021/06/26 01:38:27;;;;;;;21.63;14.38;;;17.60;98.60;;;;;;5095794;28;20480;-82
2021/06/26 01:40:53;;;;;;;21.27;14.43;;;17.50;98.60;;;;;;5093806;28;20076;-82
2021/06/26 01:43:18;;;;;;;21.05;15.95;;;17.50;98.60;;;;;;5095720;28;20024;-83
2021/06/26 01:45:44;;;;;;;21.30;14.38;;;17.60;98.60;;;;;;5096084;28;20127;-82
2021/06/26 01:48:10;;;;;;;19.48;14.63;;;17.60;98.60;;;;;;5095419;28;20038;-82
2021/06/26 01:50:36;;;;;;;18.73;14.18;;;17.60;98.60;;;;;;5094843;28;20024;-83
2021/06/26 01:53:02;;;;;;;19.63;14.40;;;17.60;98.60;;;;;;5095609;28;20024;-82
2021/06/26 01:55:28;;;;;;;21.65;15.43;;;17.60;98.60;;;;;;5094259;28;20027;-82
2021/06/26 01:57:54;;;;;;;20.58;14.75;;;17.60;98.60;;;;;;5094327;28;20026;-81
2021/06/26 02:00:23;;;;;;;19.00;14.00;;;17.60;98.60;;;;;;5094964;28;20091;-82
2021/06/26 02:02:49;;;;;;;25.27;15.52;;;17.50;98.60;;;;;;5093794;28;20020;-81
2021/06/26 02:05:17;;;;;;;23.85;15.77;;;17.60;98.70;;;;;;5093669;28;20090;-81
2021/06/26 02:07:44;;;;;;;21.55;14.27;;;17.50;98.60;;;;;;5093839;28;20024;-83
2021/06/26 02:10:11;;;;;;;21.60;14.68;;;17.50;98.60;;;;;;5095139;28;20462;-81
2021/06/26 02:12:36;;;;;;;20.92;15.50;;;17.50;98.70;;;;;;5093484;28;20030;-81
2021/06/26 02:15:03;;;;;;;20.48;15.70;;;17.50;98.70;;;;;;5093748;28;20111;-82
2021/06/26 02:17:29;;;;;;;24.33;16.95;;;17.50;98.80;;;;;;5094087;28;20028;-81
2021/06/26 02:19:55;;;;;;;22.40;15.75;;;17.40;98.90;;;;;;5093441;28;20050;-81
2021/06/26 02:22:21;;;;;;;21.65;15.20;;;17.40;99.00;;;;;;5094878;28;20028;-82
2021/06/26 02:24:46;;;;;;;21.00;14.63;;;17.40;99.00;;;;;;5093239;28;20024;-81
2021/06/26 02:27:12;;;;;;;20.65;14.88;;;17.40;99.00;;;;;;5095167;28;20028;-82
2021/06/26 02:29:38;;;;;;;20.70;15.18;;;17.40;99.00;;;;;;5093514;28;20047;-85
2021/06/26 02:32:05;;;;;;;22.17;16.10;;;17.40;99.00;;;;;;5092969;28;20063;-82
2021/06/26 02:34:31;;;;;;;21.98;15.00;;;17.40;99.00;;;;;;5093594;28;20028;-82
2021/06/26 02:36:57;;;;;;;22.00;16.00;;;17.40;99.10;;;;;;5093242;28;20427;-82
2021/06/26 02:39:22;;;;;;;22.98;15.75;;;17.40;99.00;;;;;;5093556;28;20024;-82
2021/06/26 02:41:48;;;;;;;22.35;15.73;;;17.40;99.00;;;;;;5093555;28;20036;-82
2021/06/26 02:44:13;;;;;;;22.13;15.60;;;17.40;99.30;;;;;;5093870;28;20066;-83
2021/06/26 02:46:39;;;;;;;22.75;16.10;;;17.40;98.90;;;;;;5093165;28;20039;-82
2021/06/26 02:49:05;;;;;;;20.17;15.00;;;17.40;98.90;;;;;;5092609;28;20039;-83
2021/06/26 02:51:31;;;;;;;21.58;15.73;;;17.40;99.00;;;;;;5093453;28;20043;-81
2021/06/26 02:53:56;;;;;;;22.63;17.15;;;17.40;99.00;;;;;;5093669;28;20024;-83
2021/06/26 02:56:22;;;;;;;25.55;17.05;;;17.40;99.00;;;;;;5093846;28;20492;-83
2021/06/26 02:58:48;;;;;;;22.90;16.60;;;17.40;99.10;;;;;;5093663;28;20093;-84
2021/06/26 03:01:13;;;;;;;23.00;17.05;;;17.40;99.00;;;;;;5092729;28;20028;-82
2021/06/26 03:03:39;;;;;;;22.60;15.98;;;17.40;99.10;;;;;;5093390;28;20028;-83
2021/06/26 03:06:05;;;;;;;22.77;16.25;;;17.30;99.10;;;;;;5093172;28;20036;-83
2021/06/26 03:08:30;;;;;;;22.50;16.30;;;17.30;99.10;;;;;;5093283;28;20036;-83
2021/06/26 03:10:56;;;;;;;22.02;16.58;;;17.20;99.20;;;;;;5092511;28;20024;-81
2021/06/26 03:13:22;;;;;;;25.38;17.60;;;17.20;99.20;;;;;;5094763;28;20107;-82
2021/06/26 03:15:47;;;;;;;22.25;15.55;;;17.20;99.30;;;;;;5093378;28;20024;-82
2021/06/26 03:18:13;;;;;;;20.42;14.73;;;17.20;99.60;;;;;;5093333;28;20403;-81
2021/06/26 03:20:39;;;;;;;22.10;15.70;;;17.20;99.30;;;;;;5092803;28;20074;-83
2021/06/26 03:23:06;;;;;;;22.50;15.88;;;17.30;99.60;;;;;;5094187;28;20023;-83
2021/06/26 03:25:31;;;;;;;24.10;17.40;;;17.30;99.20;;;;;;5093093;28;20020;-82
2021/06/26 03:27:57;;;;;;;24.73;16.30;;;17.20;99.10;;;;;;5095274;28;20027;-83
2021/06/26 03:30:23;;;;;;;21.58;15.70;;;17.20;99.20;;;;;;5094258;28;20098;-83
2021/06/26 03:32:48;;;;;;;24.67;17.30;;;17.20;99.20;;;;;;5093576;28;20024;-81
2021/06/26 03:35:14;;;;;;;23.33;15.70;;;17.20;99.50;;;;;;5094908;28;20052;-83
2021/06/26 03:37:40;;;;;;;21.10;15.18;;;17.20;99.30;;;;;;5093169;28;20042;-82
2021/06/26 03:40:07;;;;;;;25.00;16.90;;;17.20;99.30;;;;;;5094548;28;20422;-84
2021/06/26 03:42:32;;;;;;;25.20;17.63;;;17.20;99.30;;;;;;5094205;28;20020;-81
2021/06/26 03:44:58;;;;;;;24.50;17.70;;;17.20;99.30;;;;;;5097987;28;20051;-81
2021/06/26 03:47:25;;;;;;;22.73;16.17;;;17.20;99.30;;;;;;5098310;28;20430;-82
2021/06/26 03:49:51;;;;;;;23.88;17.58;;;17.20;99.30;;;;;;5096708;28;20031;-84
2021/06/26 03:52:17;;;;;;;22.60;17.08;;;17.20;99.30;;;;;;5096709;28;20420;-82
2021/06/26 03:54:43;;;;;;;24.65;16.48;;;17.20;99.30;;;;;;5099167;28;20036;-83
2021/06/26 03:57:09;;;;;;;24.38;17.60;;;17.20;99.40;;;;;;5098717;28;20032;-81
2021/06/26 03:59:35;;;;;;;23.70;17.20;;;17.20;99.40;;;;;;5096712;28;20133;-83
2021/06/26 04:02:00;;;;;;;23.85;17.23;;;17.30;99.40;;;;;;5097685;28;20028;-83
2021/06/26 04:04:26;;;;;;;24.65;16.63;;;17.30;99.40;;;;;;5097424;28;20020;-81
2021/06/26 04:06:52;;;;;;;24.10;17.17;;;17.30;99.40;;;;;;5097620;28;20361;-82
2021/06/26 04:09:17;;;;;;;24.00;17.45;;;17.30;99.40;;;;;;5097263;28;20093;-83
2021/06/26 04:11:43;;;;;;;26.80;18.50;;;17.30;99.40;;;;;;5098571;28;20530;-83
2021/06/26 04:14:09;;;;;;;23.77;16.85;;;17.30;99.40;;;;;;5097469;28;20366;-82
2021/06/26 04:16:34;;;;;;;24.92;17.05;;;17.30;99.40;;;;;;5097279;28;20564;-83
2021/06/26 04:19:00;;;;;;;22.60;16.30;;;17.30;99.40;;;;;;5096688;28;20126;-83
2021/06/26 04:21:26;;;;;;;24.60;16.40;;;17.30;99.40;;;;;;5097496;28;20046;-81
2021/06/26 04:23:51;;;;;;;24.50;17.17;;;17.30;99.60;;;;;;5097855;28;20031;-81
2021/06/26 04:26:17;;;;;;;23.88;17.45;;;17.30;99.40;;;;;;5097823;28;20035;-84
2021/06/26 04:28:43;;;;;;;23.20;16.38;;;17.30;99.40;;;;;;5099643;28;20031;-83
2021/06/26 04:31:08;;;;;;;26.33;18.25;;;17.30;99.40;;;;;;5097057;28;20025;-83
2021/06/26 04:33:34;;;;;;;28.25;17.63;;;17.40;99.40;;;;;;5097620;28;20111;-84
2021/06/26 04:36:00;;;;;;;24.20;17.45;;;17.40;99.40;;;;;;5096953;28;20024;-81
2021/06/26 04:38:25;;;;;;;23.98;16.52;;;17.40;99.40;;;;;;5097155;28;20093;-83
2021/06/26 04:40:53;;;;;;;23.65;17.52;;;17.40;99.40;;;;;;5098186;28;20055;-82
2021/06/26 04:43:19;;;;;;;24.67;16.52;;;17.40;99.40;;;;;;5097610;28;20027;-83
2021/06/26 04:45:46;;;;;;;24.88;18.30;;;17.40;99.50;;;;;;5098103;28;20024;-81
2021/06/26 04:48:15;;;;;;;26.25;18.23;;;17.40;99.50;;;;;;5098573;28;20412;-83
2021/06/26 04:50:41;;;;;;;29.30;18.05;;;17.50;99.40;;;;;;5096244;28;20388;-84
2021/06/26 04:53:06;;;;;;;25.30;17.80;;;17.50;99.30;;;;;;5098777;28;20028;-84
2021/06/26 04:55:32;;;;;;;24.40;17.38;;;17.60;99.30;;;;;;5097379;28;20028;-82
2021/06/26 04:57:58;;;;;;;26.38;18.02;;;17.60;99.40;;;;;;5097815;28;20020;-83
2021/06/26 05:00:24;;;;;;;23.40;16.88;;;17.60;99.20;;;;;;5098849;28;20030;-83
2021/06/26 05:02:49;;;;;;;23.63;16.75;;;17.60;99.20;;;;;;5095314;28;20022;-82
2021/06/26 05:05:15;;;;;;;23.95;17.00;;;17.70;99.10;;;;;;5095909;28;20086;-83
2021/06/26 05:07:40;;;;;;;21.95;15.88;;;17.80;99.00;;;;;;5096392;28;20081;-81
2021/06/26 05:10:06;;;;;;;27.30;18.63;;;17.80;98.80;;;;;;5095197;28;20500;-82
2021/06/26 05:12:32;;;;;;;24.83;16.83;;;17.90;98.60;;;;;;5095868;28;20031;-82
2021/06/26 05:14:58;;;;;;;25.83;17.23;;;17.90;98.40;;;;;;5094808;28;20024;-81
2021/06/26 05:17:23;;;;;;;23.10;16.25;;;18.00;98.60;;;;;;5095650;28;20024;-82
2021/06/26 05:19:49;;;;;;;25.70;18.00;;;18.00;98.30;;;;;;5100560;22;20041;-87
2021/06/26 05:22:15;;;;;;;23.55;15.68;;;18.00;98.10;;;;;;5054282;28;20017;-87
2021/06/26 05:24:41;;;;;;;23.27;15.80;;;18.00;98.10;;;;;;5053919;28;20028;-87
2021/06/26 05:27:07;;;;;;;29.65;17.80;;;18.10;98.10;;;;;;5052368;28;20024;-87
2021/06/26 05:29:34;;;;;;;30.20;18.35;;;18.10;98.00;;;;;;5068335;28;20500;-87
2021/06/26 05:31:59;;;;;;;26.80;18.45;;;18.20;98.00;;;;;;5053515;28;20032;-87
2021/06/26 05:34:25;;;;;;;24.77;18.38;;;18.20;97.80;;;;;;5052500;28;20123;-87
2021/06/26 05:36:51;;;;;;;24.92;17.48;;;18.20;98.00;;;;;;5053907;28;20025;-87
2021/06/26 05:39:16;;;;;;;25.10;17.35;;;18.20;97.90;;;;;;5053371;28;20083;-87
2021/06/26 05:41:42;;;;;;;28.33;18.65;;;18.30;97.80;;;;;;5052257;28;20032;-88
2021/06/26 05:44:08;;;;;;;26.48;16.92;;;18.30;97.90;;;;;;5052749;28;20469;-87
2021/06/26 05:46:33;;;;;;;24.33;17.55;;;18.30;97.90;;;;;;5056012;28;20033;-87
2021/06/26 05:48:59;;;;;;;24.98;17.33;;;18.30;97.70;;;;;;5064441;28;20028;-87
2021/06/26 05:51:25;;;;;;;28.45;18.38;;;18.30;97.70;;;;;;5062682;28;20075;-87
2021/06/26 05:53:51;;;;;;;27.98;18.50;;;18.30;97.60;;;;;;5065911;28;20059;-89
2021/06/26 05:56:17;;;;;;;25.52;18.33;;;18.40;97.60;;;;;;5060689;28;20021;-88
2021/06/26 05:58:43;;;;;;;26.35;18.08;;;18.40;97.50;;;;;;5054874;28;20093;-88
2021/06/26 06:01:12;;;;;;;25.00;18.05;;;18.40;97.60;;;;;;5051618;28;20074;-89
2021/06/26 06:03:39;;;;;;;24.25;16.70;;;18.40;97.70;;;;;;5052197;28;20108;-86
2021/06/26 06:06:05;;;;;;;23.30;17.58;;;18.40;97.60;;;;;;5052704;28;20489;-88
2021/06/26 06:08:31;;;;;;;29.00;18.75;;;18.40;97.70;;;;;;5053194;28;20033;-85
2021/06/26 06:10:57;;;;;;;25.23;18.52;;;18.40;97.90;;;;;;5052869;28;20028;-86
2021/06/26 06:13:23;;;;;;;26.15;18.23;;;18.40;97.90;;;;;;5052137;28;20120;-86
2021/06/26 06:15:50;;;;;;;29.80;18.85;;;18.50;97.90;;;;;;5052424;28;20116;-87
2021/06/26 06:18:18;;;;;;;23.20;17.45;;;18.40;97.90;;;;;;5056723;28;20025;-85
2021/06/26 06:20:44;;;;;;;29.13;19.20;;;18.50;97.90;;;;;;5057491;28;20025;-85
2021/06/26 06:23:10;;;;;;;30.40;19.67;;;18.50;97.90;;;;;;5060991;28;20021;-85
2021/06/26 06:25:37;;;;;;;25.25;17.55;;;18.50;97.90;;;;;;5058729;28;20060;-85
2021/06/26 06:28:03;;;;;;;30.08;20.25;;;18.60;97.90;;;;;;5054877;28;20021;-86
2021/06/26 06:30:31;;;;;;;27.80;20.00;;;18.60;97.90;;;;;;5055221;28;20497;-85
2021/06/26 06:32:58;;;;;;;33.15;21.95;;;18.60;97.80;;;;;;5052971;28;20088;-85
2021/06/26 06:35:24;;;;;;;27.92;19.33;;;18.60;97.60;;;;;;5052719;28;20025;-86
2021/06/26 06:37:50;;;;;;;25.52;17.90;;;18.60;97.50;;;;;;5051348;28;20090;-85
2021/06/26 06:40:16;;;;;;;26.30;18.92;;;18.70;97.40;;;;;;5051857;28;20032;-85
2021/06/26 06:42:42;;;;;;;27.58;19.70;;;18.80;97.40;;;;;;5051162;28;20025;-86
2021/06/26 06:45:08;;;;;;;27.55;19.52;;;18.80;97.50;;;;;;5051231;28;20022;-86
2021/06/26 06:47:34;;;;;;;25.35;18.38;;;18.80;97.50;;;;;;5051277;28;20025;-85
2021/06/26 06:50:00;;;;;;;23.30;17.13;;;18.90;97.40;;;;;;5051288;28;20070;-87
2021/06/26 06:52:25;;;;;;;24.80;16.50;;;18.90;97.20;;;;;;5052560;28;20090;-89
2021/06/26 06:54:51;;;;;;;25.98;18.48;;;19.00;97.10;;;;;;5051006;28;20033;-86
2021/06/26 06:57:20;;;;;;;25.02;17.33;;;19.00;97.10;;;;;;5052010;28;20025;-86
2021/06/26 06:59:46;;;;;;;29.98;20.65;;;19.00;96.90;;;;;;5051043;28;20024;-88
2021/06/26 07:02:11;;;;;;;26.52;17.88;;;19.00;96.30;;;;;;5051004;28;20382;-86
2021/06/26 07:04:37;;;;;;;25.00;17.67;;;19.10;96.20;;;;;;5050955;28;20367;-86
2021/06/26 07:07:03;;;;;;;24.98;17.17;;;19.10;95.90;;;;;;5051189;28;20025;-86
2021/06/26 07:09:35;;;;;;;20.75;15.07;;;19.10;95.60;;;;;;5052305;28;20083;-86
2021/06/26 07:12:01;;;;;;;18.17;13.15;;;19.20;95.60;;;;;;5053740;28;20112;-86
2021/06/26 07:14:27;;;;;;;18.83;14.45;;;19.20;95.50;;;;;;5051726;28;20511;-86
2021/06/26 07:16:53;;;;;;;21.13;15.35;;;19.30;95.10;;;;;;5050787;28;20021;-88
2021/06/26 07:19:18;;;;;;;20.80;14.60;;;19.30;95.40;;;;;;5049507;28;20358;-89
2021/06/26 07:21:44;;;;;;;23.75;17.58;;;19.30;95.10;;;;;;5051713;28;20024;-88
2021/06/26 07:24:10;;;;;;;21.88;16.00;;;19.40;95.30;;;;;;5050458;28;20079;-88
2021/06/26 07:26:36;;;;;;;23.15;16.42;;;19.40;95.30;;;;;;5050510;28;20025;-86
2021/06/26 07:29:03;;;;;;;20.42;15.05;;;19.40;95.10;;;;;;5051266;28;20028;-88
2021/06/26 07:31:28;;;;;;;19.77;14.88;;;19.40;94.70;;;;;;5051411;28;20078;-89
2021/06/26 07:33:54;;;;;;;19.42;14.48;;;19.40;94.40;;;;;;5050551;28;20025;-89
2021/06/26 07:36:20;;;;;;;23.40;17.52;;;19.40;94.20;;;;;;5050676;28;20071;-86
2021/06/26 07:38:45;;;;;;;19.92;15.10;;;19.50;94.00;;;;;;5050701;28;20029;-87
2021/06/26 07:41:12;;;;;;;18.63;14.15;;;19.50;93.90;;;;;;5050481;28;20029;-86
2021/06/26 07:43:37;;;;;;;17.17;13.30;;;19.50;93.80;;;;;;5050620;28;20060;-86
2021/06/26 07:46:04;;;;;;;18.98;14.63;;;19.50;93.80;;;;;;5050619;28;20520;-87
2021/06/26 07:48:30;;;;;;;18.23;13.85;;;19.50;93.70;;;;;;5051884;28;20087;-86
2021/06/26 07:50:56;;;;;;;17.05;12.75;;;19.50;93.70;;;;;;5050600;28;20024;-86
2021/06/26 07:53:23;;;;;;;20.42;15.45;;;19.60;93.40;;;;;;5050535;28;20025;-86
2021/06/26 07:55:51;;;;;;;20.00;14.32;;;19.60;93.00;;;;;;5050396;28;20094;-86
2021/06/26 07:58:21;;;;;;;18.48;13.30;;;19.60;93.20;;;;;;5050430;28;20045;-87
2021/06/26 08:00:47;;;;;;;19.95;13.63;;;19.70;93.30;;;;;;5049547;28;20033;-89
2021/06/26 08:03:14;;;;;;;15.50;12.50;;;19.70;93.00;;;;;;5051333;28;20214;-88
2021/06/26 08:05:39;;;;;;;21.20;15.50;;;19.70;93.20;;;;;;5050095;28;20024;-88
2021/06/26 08:08:05;;;;;;;20.65;14.00;;;19.80;93.60;;;;;;5051366;28;20378;-88
2021/06/26 08:10:31;;;;;;;21.75;15.18;;;19.90;93.70;;;;;;5049586;28;20040;-88
2021/06/26 08:12:56;;;;;;;18.25;14.48;;;19.90;93.60;;;;;;5050107;28;20548;-88
2021/06/26 08:15:22;;;;;;;19.00;13.85;;;19.90;93.80;;;;;;5051204;28;20022;-87
2021/06/26 08:17:48;;;;;;;26.42;18.90;;;20.00;94.10;;;;;;5050193;28;20116;-88
2021/06/26 08:20:13;;;;;;;24.77;16.95;;;20.00;93.60;;;;;;5050877;28;20108;-89
2021/06/26 08:22:40;;;;;;;20.23;15.93;;;20.00;93.60;;;;;;5049992;28;20025;-88
2021/06/26 08:25:06;;;;;;;20.42;14.30;;;20.10;93.70;;;;;;5049774;28;20473;-87
2021/06/26 08:27:32;;;;;;;18.65;13.52;;;20.10;93.60;;;;;;5051284;28;20017;-87
2021/06/26 08:29:58;;;;;;;18.33;12.98;;;20.10;93.60;;;;;;5052489;28;20576;-89
2021/06/26 08:32:24;;;;;;;18.48;13.55;;;20.10;93.40;;;;;;5053547;28;20024;-90
2021/06/26 08:34:49;;;;;;;19.80;14.60;;;20.10;93.40;;;;;;5055073;28;20056;-89
2021/06/26 08:37:15;;;;;;;24.50;17.00;;;20.10;93.70;;;;;;5053360;28;20029;-87
2021/06/26 08:39:41;;;;;;;19.48;14.73;;;20.10;93.60;;;;;;5052509;28;20025;-87
2021/06/26 08:42:08;;;;;;;20.00;14.10;;;20.20;93.50;;;;;;5053119;28;20409;-87
2021/06/26 08:44:34;;;;;;;20.38;13.68;;;20.20;93.30;;;;;;5054593;28;20389;-90
2021/06/26 08:47:00;;;;;;;16.50;12.70;;;20.30;93.10;;;;;;5053588;28;20047;-89
2021/06/26 08:49:25;;;;;;;15.15;11.25;;;20.30;93.10;;;;;;5052414;28;20028;-88
2021/06/26 08:51:52;;;;;;;17.63;10.45;;;20.30;93.30;;;;;;5054465;28;20040;-88
2021/06/26 08:54:19;;;;;;;13.32;10.63;;;20.30;93.40;;;;;;5053083;28;20040;-89
2021/06/26 08:56:47;;;;;;;12.63;9.60;;;20.30;93.30;;;;;;5054590;28;20032;-89
2021/06/26 08:59:13;;;;;;;14.20;10.77;;;20.30;93.20;;;;;;5052981;28;20025;-89
2021/06/26 09:01:40;;;;;;;13.77;10.60;;;20.40;93.20;;;;;;5053758;28;20029;-89
2021/06/26 09:04:08;;;;;;;15.93;11.90;;;20.40;92.70;;;;;;5053689;28;20016;-86
2021/06/26 09:06:48;;;;;;;13.88;10.20;;;20.50;92.30;;;;;;5054099;28;20388;-89
2021/06/26 09:09:14;;;;;;;15.07;11.23;;;20.60;92.30;;;;;;5052248;28;20033;-90
2021/06/26 09:11:40;;;;;;;13.15;10.85;;;20.60;92.20;;;;;;5052709;28;20032;-89
2021/06/26 09:14:17;;;;;;;16.33;11.70;;;20.60;92.20;;;;;;5052754;28;20036;-87
2021/06/26 09:16:52;;;;;;;14.32;10.93;;;20.70;92.30;;;;;;5052593;28;20048;-89
2021/06/26 09:19:19;;;;;;;12.20;9.38;;;20.70;91.90;;;;;;5052107;28;20028;-89
2021/06/26 09:22:04;;;;;;;13.32;9.52;;;20.80;92.10;;;;;;5052809;28;20025;-89
2021/06/26 09:24:42;;;;;;;12.02;8.88;;;20.80;91.90;;;;;;5052486;28;20025;-87
2021/06/26 09:27:09;;;;;;;12.20;8.57;;;20.90;91.00;;;;;;5052425;28;20028;-86
2021/06/26 09:29:34;;;;;;;9.90;8.55;;;20.80;90.80;;;;;;5052685;28;20504;-86
2021/06/26 09:32:05;;;;;;;10.05;8.23;;;20.80;91.40;;;;;;5052229;28;20025;-88
2021/06/26 09:34:42;;;;;;;13.77;9.75;;;20.80;91.20;;;;;;5053697;28;20039;-88
2021/06/26 09:37:10;;;;;;;11.18;9.15;;;20.90;91.00;;;;;;5052434;28;20505;-90
2021/06/26 09:39:38;;;;;;;12.87;9.23;;;20.90;90.60;;;;;;5053015;28;20029;-89
2021/06/26 09:42:27;;;;;;;12.95;9.57;;;21.00;90.40;;;;;;5053367;28;20028;-87
2021/06/26 09:44:59;;;;;;;9.45;7.65;;;21.20;90.00;;;;;;5052912;28;20517;-87
2021/06/26 09:47:26;;;;;;;11.52;8.07;;;21.20;89.90;;;;;;5052222;28;20051;-87
2021/06/26 09:49:54;;;;;;;11.38;9.27;;;21.20;89.90;;;;;;5051468;28;20032;-90
2021/06/26 09:52:22;;;;;;;11.93;8.68;;;21.20;90.00;;;;;;5051921;28;20024;-88
2021/06/26 09:54:51;;;;;;;9.20;7.80;;;21.20;89.50;;;;;;5035810;28;20025;-90
2021/06/26 09:57:18;;;;;;;8.05;7.03;;;21.20;89.90;;;;;;5052221;28;20337;-90
2021/06/26 09:59:45;;;;;;;9.25;7.20;;;21.20;88.80;;;;;;5052360;28;20500;-89
2021/06/26 10:02:19;;;;;;;9.25;6.70;;;21.30;87.00;;;;;;5052786;28;20028;-89
2021/06/26 10:04:45;;;;;;;8.07;6.72;;;21.30;86.10;;;;;;5052981;28;20458;-90
2021/06/26 10:07:11;;;;;;;8.82;7.45;;;21.40;85.40;;;;;;5052918;28;20067;-90
2021/06/26 10:09:39;;;;;;;12.35;8.18;;;21.50;85.90;;;;;;5051145;28;20116;-90
2021/06/26 10:12:05;;;;;;;11.32;7.93;;;21.50;85.30;;;;;;5052988;28;20528;-90
2021/06/26 10:14:34;;;;;;;10.02;7.80;;;21.50;86.00;;;;;;5051916;28;20044;-90
2021/06/26 10:17:01;;;;;;;10.32;8.45;;;21.60;86.40;;;;;;5050377;28;20391;-89
2021/06/26 10:19:27;;;;;;;10.50;8.40;;;21.60;86.20;;;;;;5051270;28;20119;-90
2021/06/26 10:21:53;;;;;;;11.98;8.45;;;21.70;85.70;;;;;;5051428;28;20025;-90
2021/06/26 10:24:19;;;;;;;9.75;7.82;;;21.70;86.50;;;;;;5051536;28;20025;-88
2021/06/26 10:26:45;;;;;;;9.95;8.13;;;21.80;86.60;;;;;;5052991;28;20553;-89
2021/06/26 10:29:13;;;;;;;11.38;8.55;;;21.90;86.10;;;;;;5052549;28;20104;-87
2021/06/26 10:31:41;;;;;;;11.23;9.55;;;21.90;85.70;;;;;;5051343;28;20041;-89
2021/06/26 10:34:16;;;;;;;11.75;8.50;;;22.00;84.50;;;;;;5052825;28;20100;-89
2021/06/26 10:36:50;;;;;;;10.88;8.65;;;22.00;85.20;;;;;;5052523;28;20033;-88
2021/06/26 10:39:25;;;;;;;9.73;8.48;;;22.00;85.40;;;;;;5051992;28;20096;-90
2021/06/26 10:42:07;;;;;;;11.45;8.13;;;22.00;84.90;;;;;;5052283;28;20045;-89
2021/06/26 10:44:59;;;;;;;9.10;8.00;;;22.00;84.10;;;;;;5052344;28;20021;-86
2021/06/26 10:47:40;;;;;;;10.55;9.23;;;22.00;84.50;;;;;;5047409;28;20029;-86
2021/06/26 10:50:43;;;;;;;11.20;8.73;;;21.90;84.40;;;;;;5050970;28;20389;-89
2021/06/26 10:53:08;;;;;;;12.23;9.45;;;22.00;84.20;;;;;;5050304;28;20036;-87
2021/06/26 10:55:38;;;;;;;12.20;9.68;;;22.00;84.80;;;;;;5052079;28;20469;-87
2021/06/26 10:58:07;;;;;;;12.10;8.38;;;22.00;84.40;;;;;;5052164;28;20484;-87
2021/06/26 11:00:41;;;;;;;;;;;22.00;83.90;;;;;;5050734;28;20032;-89
2021/06/26 11:03:31;;;;;;;9.55;7.32;;;22.10;82.10;;;;;;5052336;28;19936;-88
2021/06/26 11:05:59;;;;;;;12.35;10.43;;;22.10;82.70;;;;;;5051001;28;20111;-90
2021/06/26 11:08:26;;;;;;;10.57;9.07;;;22.00;83.50;;;;;;5052191;28;20021;-90
2021/06/26 11:10:58;;;;;;;12.95;9.25;;;21.90;84.50;;;;;;5050065;28;20121;-89
2021/06/26 11:13:27;;;;;;;13.80;9.15;;;21.90;83.50;;;;;;5050837;28;20520;-90
2021/06/26 11:16:08;;;;;;;10.45;8.25;;;21.90;81.60;;;;;;5050788;28;20072;-90
2021/06/26 11:18:35;;;;;;;10.50;7.68;;;21.90;81.00;;;;;;5050710;28;20021;-90
2021/06/26 11:21:02;;;;;;;8.70;7.10;;;22.00;80.60;;;;;;5105301;22;20063;-85
2021/06/26 11:23:28;;;;;;;9.80;7.30;;;22.10;80.60;;;;;;5090935;28;20103;-85
2021/06/26 11:26:02;;;;;;;8.60;7.05;;;22.10;80.80;;;;;;5090866;28;20055;-85
2021/06/26 11:28:28;;;;;;;8.27;7.15;;;22.10;81.00;;;;;;5090947;28;20082;-84
2021/06/26 11:31:02;;;;;;;10.23;7.20;;;22.10;81.30;;;;;;5090882;28;20028;-85
2021/06/26 11:33:32;;;;;;;10.73;7.43;;;22.10;81.40;;;;;;5091241;28;20388;-84
2021/06/26 11:35:58;;;;;;;9.05;7.50;;;22.20;80.80;;;;;;5092237;28;20035;-85
2021/06/26 11:38:23;;;;;;;10.43;7.18;;;22.30;80.90;;;;;;5092263;28;20020;-85
2021/06/26 11:41:00;;;;;;;11.65;7.45;;;22.20;80.50;;;;;;5092095;28;20020;-84
2021/06/26 11:43:25;;;;;;;7.72;6.38;;;22.20;80.40;;;;;;5091046;28;20025;-85
2021/06/26 11:45:51;;;;;;;9.77;7.43;;;22.20;80.50;;;;;;5092283;28;20358;-85
2021/06/26 11:48:19;;;;;;;9.73;7.70;;;22.20;79.40;;;;;;5090847;28;20025;-85
2021/06/26 11:51:05;;;;;;;10.63;7.55;;;22.20;80.00;;;;;;5090285;28;20031;-85
2021/06/26 11:53:36;;;;;;;9.80;8.02;;;22.10;80.40;;;;;;5090579;28;20060;-85
2021/06/26 11:56:03;;;;;;;9.73;7.10;;;22.00;81.50;;;;;;5091666;28;20050;-85
2021/06/26 11:58:43;;;;;;;8.65;7.43;;;22.00;80.90;;;;;;5090370;28;20020;-85
2021/06/26 12:01:17;;;;;;;8.73;7.32;;;21.90;80.90;;;;;;5089752;28;20028;-85
2021/06/26 12:03:43;;;;;;;8.77;7.35;;;21.90;81.20;;;;;;5091775;28;20024;-85
2021/06/26 12:06:12;;;;;;;7.85;7.05;;;21.80;81.50;;;;;;5094767;28;20361;-86
2021/06/26 12:08:55;;;;;;;9.68;7.47;;;21.90;81.40;;;;;;5095654;28;20020;-85
2021/06/26 12:11:22;;;;;;;9.45;7.28;;;21.80;81.90;;;;;;5095250;28;20027;-85
2021/06/26 12:13:50;;;;;;;9.95;7.80;;;21.70;82.20;;;;;;5095597;28;20027;-85
2021/06/26 12:16:20;;;;;;;8.45;7.20;;;21.70;82.40;;;;;;5095677;28;20027;-85
2021/06/26 12:18:53;;;;;;;9.25;7.53;;;21.70;82.60;;;;;;5094182;28;20020;-84
2021/06/26 12:21:25;;;;;;;8.57;7.20;;;21.60;82.80;;;;;;5094173;28;20039;-85
2021/06/26 12:23:54;;;;;;;8.65;6.63;;;21.60;83.00;;;;;;5094281;28;20460;-84
2021/06/26 12:26:27;;;;;;;8.27;6.70;;;21.60;83.00;;;;;;5094124;28;20024;-84
2021/06/26 12:28:54;;;;;;;8.77;7.20;;;21.60;82.80;;;;;;5093724;28;20499;-84
2021/06/26 12:31:21;;;;;;;10.02;6.85;;;21.60;83.40;;;;;;5093592;28;20030;-84